Time;durP1;ratioP1;P1;durP2;ratioP2;P2;SDS_P1;SDS_P2;PMS_P1;PMS_P2;Temp;Humidity;BMP_temperature;BMP_pressure;BME280_temperature;BME280_humidity;BME280_pressure;Samples;Min_cycle;Max_cycle;Signal;HPM_P1;HPM_P2
2022/08/29 00:00:34;;;;;;;9.48;2.67;;;14.90;99.90;;;;;;5072075;28;20041;-68
2022/08/29 00:03:00;;;;;;;7.30;2.47;;;14.90;99.90;;;;;;5075730;28;20033;-64
2022/08/29 00:05:34;;;;;;;10.45;2.75;;;14.90;99.90;;;;;;5075668;28;20074;-67
2022/08/29 00:08:01;;;;;;;6.85;2.75;;;14.90;99.90;;;;;;5075942;28;20021;-67
2022/08/29 00:10:28;;;;;;;8.85;2.33;;;14.80;99.90;;;;;;5075969;28;20016;-67
2022/08/29 00:12:55;;;;;;;6.88;2.50;;;14.80;99.90;;;;;;5075793;28;20362;-67
2022/08/29 00:15:21;;;;;;;7.07;2.40;;;14.80;99.90;;;;;;5074651;28;20103;-69
2022/08/29 00:17:47;;;;;;;6.28;2.55;;;14.80;99.90;;;;;;5074762;28;20025;-67
2022/08/29 00:20:20;;;;;;;8.73;2.75;;;14.80;99.90;;;;;;5075887;28;20515;-68
2022/08/29 00:22:45;;;;;;;;;;;14.70;99.90;;;;;;5076109;28;20028;-67
2022/08/29 00:25:13;;;;;;;6.85;2.60;;;14.70;99.90;;;;;;5075676;28;19900;-66
2022/08/29 00:27:38;;;;;;;5.80;2.40;;;14.60;99.90;;;;;;5075547;28;20074;-67
2022/08/29 00:30:06;;;;;;;6.65;2.70;;;14.50;99.90;;;;;;5076008;28;20028;-68
2022/08/29 00:32:33;;;;;;;7.75;2.20;;;14.50;99.90;;;;;;5074971;28;20025;-68
2022/08/29 00:35:09;;;;;;;6.65;2.30;;;14.50;99.90;;;;;;5075573;28;20462;-66
2022/08/29 00:37:35;;;;;;;7.60;2.60;;;14.50;99.90;;;;;;5075469;28;20060;-67
2022/08/29 00:40:03;;;;;;;4.20;2.15;;;14.40;99.90;;;;;;5075362;28;20048;-67
2022/08/29 00:42:30;;;;;;;5.03;2.13;;;14.40;99.90;;;;;;5075208;28;20039;-67
2022/08/29 00:44:55;;;;;;;7.32;3.13;;;14.40;99.90;;;;;;5073987;28;20024;-68
2022/08/29 00:47:28;;;;;;;9.65;2.30;;;14.30;99.90;;;;;;5073725;28;20032;-67
2022/08/29 00:49:54;;;;;;;;;;;14.30;99.90;;;;;;5075842;28;20056;-68
2022/08/29 00:52:38;;;;;;;4.30;1.92;;;14.30;99.90;;;;;;5075431;28;19933;-71
2022/08/29 00:55:09;;;;;;;4.65;1.98;;;14.20;99.90;;;;;;5075137;28;20026;-67
2022/08/29 00:57:37;;;;;;;5.78;2.30;;;14.20;99.90;;;;;;5074769;28;20025;-67
2022/08/29 01:00:05;;;;;;;9.80;2.20;;;14.20;99.90;;;;;;5074755;28;20067;-66
2022/08/29 01:02:31;;;;;;;6.82;2.05;;;14.20;99.90;;;;;;5075031;28;20038;-67
2022/08/29 01:04:59;;;;;;;5.15;2.17;;;14.20;99.90;;;;;;5073660;28;20119;-67
2022/08/29 01:07:24;;;;;;;5.70;2.97;;;14.20;99.90;;;;;;5073346;28;20444;-68
2022/08/29 01:09:51;;;;;;;9.18;2.88;;;14.20;99.90;;;;;;5074257;28;20016;-67
2022/08/29 01:12:18;;;;;;;8.50;2.35;;;14.20;99.90;;;;;;5072479;28;20107;-68
2022/08/29 01:14:46;;;;;;;6.72;2.50;;;14.10;99.90;;;;;;5071397;28;20033;-67
2022/08/29 01:17:16;;;;;;;10.18;3.90;;;14.10;99.90;;;;;;5072235;28;20021;-67
2022/08/29 01:20:05;;;;;;;5.60;2.35;;;14.10;99.90;;;;;;5073551;28;20036;-68
2022/08/29 01:22:42;;;;;;;5.18;2.20;;;14.10;99.90;;;;;;5070743;28;20035;-71
2022/08/29 01:25:12;;;;;;;4.45;2.05;;;14.10;99.90;;;;;;5073501;28;20028;-67
2022/08/29 01:27:42;;;;;;;7.78;2.63;;;14.10;99.90;;;;;;5072124;28;20118;-68
2022/08/29 01:30:09;;;;;;;6.38;2.15;;;14.10;99.90;;;;;;5072989;28;20017;-67
2022/08/29 01:32:35;;;;;;;4.10;2.30;;;14.10;99.90;;;;;;5071742;28;20017;-67
2022/08/29 01:35:00;;;;;;;5.18;2.45;;;14.10;99.90;;;;;;5072874;28;20465;-67
2022/08/29 01:37:32;;;;;;;7.85;3.33;;;14.10;99.90;;;;;;5072825;28;20016;-69
2022/08/29 01:39:58;;;;;;;7.60;2.67;;;14.10;99.90;;;;;;5071909;28;20105;-68
2022/08/29 01:42:23;;;;;;;5.90;3.03;;;14.10;99.90;;;;;;5072626;28;20166;-67
2022/08/29 01:44:58;;;;;;;4.47;2.60;;;14.00;99.90;;;;;;5070472;28;20047;-66
2022/08/29 01:47:26;;;;;;;6.07;2.60;;;14.00;99.90;;;;;;5071501;28;20024;-67
2022/08/29 01:49:52;;;;;;;5.13;2.50;;;14.00;99.90;;;;;;5070303;28;20330;-68
2022/08/29 01:52:18;;;;;;;5.13;2.10;;;14.00;99.90;;;;;;5074222;28;20358;-67
2022/08/29 01:54:45;;;;;;;5.47;2.67;;;14.00;99.90;;;;;;5072741;28;20020;-68
2022/08/29 01:57:12;;;;;;;8.68;2.40;;;14.00;99.90;;;;;;5073810;28;20095;-69
2022/08/29 01:59:38;;;;;;;4.47;2.40;;;14.00;99.90;;;;;;5073700;28;20067;-67
2022/08/29 02:02:30;;;;;;;8.38;2.70;;;14.00;99.90;;;;;;5073634;28;20032;-67
2022/08/29 02:04:57;;;;;;;5.95;2.53;;;14.00;99.90;;;;;;5069368;28;20032;-67
2022/08/29 02:07:24;;;;;;;6.00;2.28;;;14.00;99.90;;;;;;5073841;28;20035;-67
2022/08/29 02:09:50;;;;;;;5.68;2.30;;;14.00;99.90;;;;;;5073752;28;20165;-70
2022/08/29 02:12:16;;;;;;;5.95;2.50;;;13.90;99.90;;;;;;5073897;28;20050;-68
2022/08/29 02:14:43;;;;;;;6.30;2.70;;;14.00;99.90;;;;;;5073569;28;20020;-67
2022/08/29 02:17:08;;;;;;;7.53;2.45;;;13.90;99.90;;;;;;5073335;28;20032;-67
2022/08/29 02:19:36;;;;;;;7.40;2.60;;;13.90;99.90;;;;;;5073674;28;20107;-67
2022/08/29 02:22:02;;;;;;;9.02;3.05;;;13.90;99.90;;;;;;5073505;28;20051;-68
2022/08/29 02:24:29;;;;;;;7.32;2.60;;;13.90;99.90;;;;;;5071875;28;20016;-68
2022/08/29 02:26:57;;;;;;;5.60;2.83;;;13.90;99.90;;;;;;5072223;28;20028;-71
2022/08/29 02:29:24;;;;;;;7.05;2.70;;;14.00;99.90;;;;;;5073625;28;20025;-66
2022/08/29 02:31:50;;;;;;;6.07;3.05;;;14.00;99.90;;;;;;5073557;28;20027;-66
2022/08/29 02:34:16;;;;;;;5.80;2.70;;;14.10;99.90;;;;;;5073376;28;20408;-68
2022/08/29 02:36:42;;;;;;;5.43;2.50;;;14.20;99.90;;;;;;5073691;28;20032;-69
2022/08/29 02:39:07;;;;;;;10.57;2.60;;;14.30;99.90;;;;;;5072149;28;20024;-65
2022/08/29 02:41:33;;;;;;;5.78;2.30;;;14.30;99.90;;;;;;5073286;28;20546;-70
2022/08/29 02:43:58;;;;;;;6.40;2.13;;;14.40;99.90;;;;;;5073453;28;20028;-71
2022/08/29 02:46:25;;;;;;;5.82;2.22;;;14.50;99.90;;;;;;5073192;28;20016;-67
2022/08/29 02:48:50;;;;;;;6.55;2.83;;;14.60;99.90;;;;;;5073129;28;20044;-68
2022/08/29 02:51:26;;;;;;;8.93;2.95;;;14.60;99.90;;;;;;5073302;28;20056;-68
2022/08/29 02:53:53;;;;;;;9.00;2.42;;;14.70;99.90;;;;;;5072792;28;20377;-67
2022/08/29 02:56:19;;;;;;;6.05;2.65;;;14.80;99.90;;;;;;5072934;28;20465;-66
2022/08/29 02:58:46;;;;;;;7.75;2.22;;;14.80;99.90;;;;;;5071603;28;20021;-67
2022/08/29 03:01:11;;;;;;;8.77;2.72;;;14.90;99.90;;;;;;5072906;28;20040;-67
2022/08/29 03:03:37;;;;;;;8.18;2.83;;;15.00;99.90;;;;;;5072643;28;20058;-67
2022/08/29 03:06:03;;;;;;;7.10;2.78;;;15.10;99.90;;;;;;5072894;28;20112;-67
2022/08/29 03:08:28;;;;;;;6.55;2.55;;;15.10;99.90;;;;;;5073201;28;20350;-71
2022/08/29 03:10:54;;;;;;;8.52;2.38;;;15.20;99.90;;;;;;5072832;28;20100;-68
2022/08/29 03:13:20;;;;;;;6.60;2.72;;;15.30;99.90;;;;;;5071470;28;20024;-69
2022/08/29 03:15:46;;;;;;;6.25;2.40;;;15.40;99.90;;;;;;5072854;28;20388;-70
2022/08/29 03:18:13;;;;;;;6.20;2.60;;;15.40;99.90;;;;;;5073097;28;20056;-70
2022/08/29 03:20:40;;;;;;;6.32;2.63;;;15.50;99.90;;;;;;5072918;28;20020;-67
2022/08/29 03:23:07;;;;;;;5.25;2.47;;;15.50;99.90;;;;;;5072640;28;20036;-69
2022/08/29 03:25:33;;;;;;;7.07;2.70;;;15.60;99.90;;;;;;5072567;28;20029;-67
2022/08/29 03:27:59;;;;;;;5.05;2.35;;;15.60;99.90;;;;;;5072757;28;20036;-71
2022/08/29 03:30:25;;;;;;;7.68;2.67;;;15.70;99.90;;;;;;5072778;28;20028;-71
2022/08/29 03:32:51;;;;;;;7.95;2.90;;;15.70;99.90;;;;;;5072873;28;20047;-68
2022/08/29 03:35:18;;;;;;;7.55;2.55;;;15.70;99.90;;;;;;5073078;28;20036;-67
2022/08/29 03:37:44;;;;;;;8.80;2.63;;;15.80;99.90;;;;;;5075849;28;20020;-67
2022/08/29 03:40:12;;;;;;;4.68;2.40;;;15.80;99.90;;;;;;5076567;28;20078;-66
2022/08/29 03:42:38;;;;;;;6.38;2.60;;;15.80;99.90;;;;;;5076568;28;20036;-66
2022/08/29 03:45:09;;;;;;;8.68;2.38;;;15.90;99.90;;;;;;5075297;28;20130;-70
2022/08/29 03:47:34;;;;;;;5.85;2.65;;;15.90;99.90;;;;;;5076439;28;20122;-66
2022/08/29 03:50:00;;;;;;;7.07;3.15;;;15.90;99.90;;;;;;5076858;28;20056;-66
2022/08/29 03:52:25;;;;;;;8.43;2.92;;;16.00;99.90;;;;;;5076601;28;20487;-66
2022/08/29 03:54:51;;;;;;;9.85;2.75;;;16.00;99.90;;;;;;5076319;28;20025;-67
2022/08/29 03:57:17;;;;;;;6.25;2.70;;;16.10;99.90;;;;;;5076212;28;20024;-66
2022/08/29 03:59:42;;;;;;;8.23;2.95;;;16.00;99.90;;;;;;5075691;28;20109;-69
2022/08/29 04:02:08;;;;;;;8.15;2.97;;;16.10;99.90;;;;;;5075611;28;20035;-67
2022/08/29 04:07:18;;;;;;;7.43;2.85;;;16.20;99.90;;;;;;5076721;28;20150;-69
2022/08/29 04:09:44;;;;;;;6.50;2.80;;;16.20;99.90;;;;;;5076387;28;20056;-67
2022/08/29 04:12:11;;;;;;;6.80;2.72;;;16.30;99.90;;;;;;5076177;28;20395;-65
2022/08/29 04:14:39;;;;;;;9.00;3.30;;;16.30;99.90;;;;;;5076190;28;20099;-68
2022/08/29 04:17:06;;;;;;;11.77;3.63;;;16.30;99.90;;;;;;5074799;28;20021;-68
2022/08/29 04:19:34;;;;;;;8.88;2.63;;;16.30;99.90;;;;;;5075757;28;20056;-68
2022/08/29 04:21:59;;;;;;;8.75;2.92;;;16.30;99.90;;;;;;5075755;28;20060;-67
2022/08/29 04:24:25;;;;;;;9.93;3.00;;;16.40;99.90;;;;;;5074440;28;20082;-68
2022/08/29 04:26:51;;;;;;;9.68;3.42;;;16.40;99.90;;;;;;5075513;28;20509;-67
2022/08/29 04:29:16;;;;;;;8.13;2.83;;;16.50;99.90;;;;;;5075863;28;20431;-66
2022/08/29 04:31:42;;;;;;;8.10;3.20;;;16.50;99.90;;;;;;5076045;28;20020;-71
2022/08/29 04:34:11;;;;;;;9.75;3.40;;;16.50;99.90;;;;;;5075756;28;20028;-69
2022/08/29 04:36:40;;;;;;;10.77;2.92;;;16.60;99.90;;;;;;5075597;28;20020;-67
2022/08/29 04:39:06;;;;;;;7.80;2.83;;;16.60;99.90;;;;;;5075592;28;20106;-66
2022/08/29 04:41:33;;;;;;;8.45;3.08;;;16.60;99.90;;;;;;5074105;28;20052;-67
2022/08/29 04:43:58;;;;;;;8.32;3.15;;;16.60;99.90;;;;;;5075657;28;20020;-67
2022/08/29 04:46:24;;;;;;;6.38;2.72;;;16.60;99.90;;;;;;5074036;28;20021;-66
2022/08/29 04:48:51;;;;;;;7.18;2.95;;;16.70;99.90;;;;;;5075213;28;20048;-66
2022/08/29 04:51:16;;;;;;;9.43;3.33;;;16.70;99.90;;;;;;5075467;28;20024;-68
2022/08/29 04:53:42;;;;;;;10.07;3.22;;;16.70;99.90;;;;;;5075037;28;20024;-66
2022/08/29 04:56:11;;;;;;;8.35;3.33;;;16.70;99.90;;;;;;5075538;28;20025;-68
2022/08/29 04:58:39;;;;;;;8.50;3.22;;;16.80;99.90;;;;;;5075429;28;20027;-66
2022/08/29 05:01:05;;;;;;;9.52;3.42;;;16.70;99.90;;;;;;5075136;28;20048;-66
2022/08/29 05:03:31;;;;;;;8.68;3.40;;;16.70;99.90;;;;;;5075145;28;20024;-71
2022/08/29 05:06:05;;;;;;;7.68;3.22;;;16.80;99.90;;;;;;5073935;28;20030;-67
2022/08/29 05:08:32;;;;;;;7.15;3.13;;;16.80;99.90;;;;;;5075004;28;20023;-70
2022/08/29 05:10:57;;;;;;;7.45;3.20;;;16.80;99.90;;;;;;5075352;28;20070;-67
2022/08/29 05:13:23;;;;;;;8.02;3.30;;;16.80;99.90;;;;;;5073970;28;20020;-70
2022/08/29 05:15:49;;;;;;;9.60;3.17;;;16.80;99.90;;;;;;5075035;28;20082;-67
2022/08/29 05:18:16;;;;;;;11.35;3.70;;;16.90;99.90;;;;;;5075003;28;20060;-72
2022/08/29 05:20:44;;;;;;;14.05;3.60;;;16.90;99.90;;;;;;5075149;28;20017;-67
2022/08/29 05:23:09;;;;;;;14.10;3.67;;;16.90;99.90;;;;;;5074764;28;20378;-67
2022/08/29 05:25:35;;;;;;;6.82;3.30;;;17.00;99.90;;;;;;5075151;28;20128;-67
2022/08/29 05:28:01;;;;;;;11.45;3.60;;;17.00;99.90;;;;;;5074458;28;20103;-67
2022/08/29 05:30:27;;;;;;;7.47;3.67;;;17.00;99.90;;;;;;5074666;28;20025;-67
2022/08/29 05:32:55;;;;;;;11.35;4.18;;;17.00;99.90;;;;;;5075049;28;20028;-68
2022/08/29 05:35:21;;;;;;;11.75;4.57;;;17.00;99.90;;;;;;5074870;28;20029;-71
2022/08/29 05:37:47;;;;;;;10.40;4.05;;;17.10;99.90;;;;;;5074773;28;20024;-68
2022/08/29 05:40:12;;;;;;;11.15;3.25;;;17.10;99.90;;;;;;5074610;28;20358;-68
2022/08/29 05:42:39;;;;;;;8.32;3.30;;;17.20;99.90;;;;;;5074395;28;20063;-68
2022/08/29 05:45:05;;;;;;;10.77;3.47;;;17.20;99.90;;;;;;5073946;28;20370;-69
2022/08/29 05:47:31;;;;;;;8.02;3.45;;;17.30;99.90;;;;;;5074518;28;20335;-69
2022/08/29 05:49:58;;;;;;;11.50;3.38;;;17.30;99.90;;;;;;5074592;28;20024;-69
2022/08/29 05:52:24;;;;;;;8.35;4.13;;;17.40;99.90;;;;;;5074429;28;20484;-67
2022/08/29 05:54:50;;;;;;;9.32;3.20;;;17.50;99.90;;;;;;5074570;28;20032;-69
2022/08/29 05:57:19;;;;;;;8.80;3.42;;;17.50;99.90;;;;;;5074681;28;20032;-65
2022/08/29 05:59:49;;;;;;;11.32;4.00;;;17.70;99.90;;;;;;5073327;28;20516;-68
2022/08/29 06:02:15;;;;;;;10.55;3.50;;;17.80;99.90;;;;;;5074463;28;20470;-67
2022/08/29 06:04:40;;;;;;;13.10;3.47;;;17.90;99.90;;;;;;5074427;28;20485;-67
2022/08/29 06:07:07;;;;;;;11.23;3.58;;;18.20;99.90;;;;;;5074119;28;20044;-67
2022/08/29 06:09:34;;;;;;;11.73;3.63;;;18.30;99.90;;;;;;5072841;28;20379;-67
2022/08/29 06:11:59;;;;;;;14.18;4.03;;;18.60;99.90;;;;;;5073912;28;20082;-67
2022/08/29 06:14:25;;;;;;;11.15;4.30;;;18.80;99.90;;;;;;5073546;28;20025;-67
2022/08/29 06:16:52;;;;;;;11.45;3.80;;;19.10;99.90;;;;;;5074152;28;20032;-68
2022/08/29 06:19:18;;;;;;;15.40;4.03;;;19.30;99.90;;;;;;5072660;28;20024;-67
2022/08/29 06:21:43;;;;;;;8.88;3.72;;;19.50;99.90;;;;;;5073729;28;20528;-67
2022/08/29 06:24:09;;;;;;;9.32;3.65;;;19.80;99.90;;;;;;5073419;28;20031;-67
2022/08/29 06:26:34;;;;;;;9.68;3.28;;;20.00;99.90;;;;;;5073582;28;20067;-67
2022/08/29 06:29:04;;;;;;;9.85;3.45;;;20.20;99.90;;;;;;5073708;28;20396;-69
2022/08/29 06:31:30;;;;;;;9.05;3.60;;;20.40;99.90;;;;;;5073754;28;20029;-67
2022/08/29 06:33:58;;;;;;;9.60;3.63;;;20.50;99.50;;;;;;5073245;28;20488;-67
2022/08/29 06:36:24;;;;;;;12.05;4.15;;;20.70;99.10;;;;;;5073812;28;20024;-69
2022/08/29 06:38:50;;;;;;;10.02;3.55;;;20.70;99.20;;;;;;5073681;28;20067;-68
2022/08/29 06:41:16;;;;;;;11.00;5.05;;;20.70;98.90;;;;;;5073212;28;20017;-70
2022/08/29 06:43:43;;;;;;;9.63;3.72;;;20.70;98.70;;;;;;5073301;28;20036;-66
2022/08/29 06:46:28;;;;;;;12.68;3.75;;;20.70;98.90;;;;;;5073217;28;20103;-67
2022/08/29 06:48:55;;;;;;;9.05;3.20;;;20.70;98.80;;;;;;5073068;28;20020;-67
2022/08/29 06:51:21;;;;;;;8.43;2.92;;;20.70;98.70;;;;;;5073267;28;20016;-70
2022/08/29 06:53:46;;;;;;;9.75;2.90;;;20.70;98.50;;;;;;5072996;28;20479;-68
2022/08/29 06:56:13;;;;;;;9.23;3.13;;;20.80;98.80;;;;;;5072079;28;20108;-67
2022/08/29 06:58:39;;;;;;;9.90;3.00;;;20.90;98.20;;;;;;5073348;28;20013;-71
2022/08/29 07:01:06;;;;;;;9.52;3.38;;;21.00;98.30;;;;;;5073436;28;20482;-68
2022/08/29 07:03:33;;;;;;;8.20;2.83;;;21.10;98.30;;;;;;5073237;28;20458;-70
2022/08/29 07:05:58;;;;;;;16.88;3.03;;;21.20;97.90;;;;;;5072720;28;20025;-70
2022/08/29 07:08:24;;;;;;;6.05;2.63;;;21.30;97.70;;;;;;5072945;28;20024;-71
2022/08/29 07:10:49;;;;;;;9.85;3.13;;;21.40;97.30;;;;;;5072261;28;20040;-68
2022/08/29 07:13:15;;;;;;;10.73;3.00;;;21.50;97.20;;;;;;5071779;28;20016;-68
2022/08/29 07:15:41;;;;;;;7.47;2.50;;;21.50;96.60;;;;;;5073055;28;20032;-70
2022/08/29 07:18:06;;;;;;;7.93;2.58;;;21.50;96.00;;;;;;5072957;28;20024;-69
2022/08/29 07:20:32;;;;;;;9.13;2.72;;;21.50;95.90;;;;;;5073299;28;20071;-70
2022/08/29 07:22:57;;;;;;;8.75;2.30;;;21.40;95.60;;;;;;5072745;28;20055;-70
2022/08/29 07:25:23;;;;;;;7.22;2.65;;;21.30;95.50;;;;;;5073240;28;20323;-68
2022/08/29 07:27:50;;;;;;;8.50;2.25;;;21.30;95.20;;;;;;5073058;28;20016;-65
2022/08/29 07:30:16;;;;;;;7.05;2.00;;;21.20;95.50;;;;;;5072728;28;20016;-67
2022/08/29 07:32:44;;;;;;;4.95;1.92;;;21.10;95.30;;;;;;5072965;28;20043;-67
2022/08/29 07:35:14;;;;;;;5.43;2.40;;;21.00;95.40;;;;;;5072749;28;20017;-67
2022/08/29 07:37:40;;;;;;;8.82;2.50;;;20.80;95.90;;;;;;5072256;28;20027;-72
2022/08/29 07:40:09;;;;;;;5.78;2.00;;;20.70;96.20;;;;;;5072781;28;20443;-67
2022/08/29 07:42:36;;;;;;;9.98;2.47;;;20.70;96.40;;;;;;5072863;28;20040;-68
2022/08/29 07:45:03;;;;;;;5.93;1.77;;;20.80;96.50;;;;;;5072510;28;20441;-67
2022/08/29 07:47:30;;;;;;;8.40;2.60;;;20.90;96.70;;;;;;5072774;28;20430;-68
2022/08/29 07:49:55;;;;;;;8.57;2.30;;;21.00;96.70;;;;;;5072625;28;20020;-72
2022/08/29 07:52:21;;;;;;;5.38;2.20;;;21.10;96.60;;;;;;5063948;28;20038;-69
2022/08/29 07:54:46;;;;;;;9.45;2.97;;;21.20;96.70;;;;;;5071621;28;20024;-68
2022/08/29 07:57:16;;;;;;;9.15;2.20;;;21.30;96.60;;;;;;5072383;28;20103;-69
2022/08/29 07:59:42;;;;;;;6.78;2.10;;;21.30;96.80;;;;;;5072512;28;20040;-66
2022/08/29 08:02:07;;;;;;;6.57;2.08;;;21.30;96.70;;;;;;5058540;28;20094;-68
2022/08/29 08:04:33;;;;;;;7.80;2.42;;;21.40;96.90;;;;;;5065669;28;20369;-66
2022/08/29 08:06:59;;;;;;;6.13;2.50;;;21.40;96.80;;;;;;5071619;28;20034;-67
2022/08/29 08:09:24;;;;;;;12.02;2.33;;;21.40;96.90;;;;;;5071119;28;20024;-67
2022/08/29 08:11:50;;;;;;;5.93;1.90;;;21.60;97.00;;;;;;5072425;28;20021;-67
2022/08/29 08:14:15;;;;;;;6.22;1.90;;;21.80;96.50;;;;;;5072014;28;20375;-66
2022/08/29 08:16:41;;;;;;;8.00;2.40;;;22.00;96.10;;;;;;5072314;28;20465;-65
2022/08/29 08:19:07;;;;;;;11.40;2.30;;;22.10;96.00;;;;;;5072000;28;20013;-66
2022/08/29 08:21:33;;;;;;;7.80;1.98;;;22.10;96.10;;;;;;5070864;28;20481;-69
2022/08/29 08:23:59;;;;;;;6.00;2.30;;;22.00;96.20;;;;;;5075279;28;20029;-67
2022/08/29 08:26:25;;;;;;;9.18;2.40;;;21.90;96.30;;;;;;5074433;28;20028;-70
2022/08/29 08:28:52;;;;;;;3.60;1.80;;;21.80;96.60;;;;;;5074012;28;20032;-67
2022/08/29 08:31:18;;;;;;;11.45;2.25;;;21.80;96.60;;;;;;5055528;28;20027;-67
2022/08/29 08:33:44;;;;;;;8.50;2.30;;;21.80;96.70;;;;;;5055725;28;20021;-67
2022/08/29 08:36:16;;;;;;;8.30;2.22;;;21.80;96.70;;;;;;5054415;28;20340;-69
2022/08/29 08:38:42;;;;;;;5.05;2.10;;;21.70;96.80;;;;;;5055867;28;20017;-68
2022/08/29 08:41:22;;;;;;;7.45;2.72;;;21.70;97.30;;;;;;5055480;28;20028;-66
2022/08/29 08:43:49;;;;;;;5.70;2.40;;;21.70;96.90;;;;;;5054271;28;20033;-67
2022/08/29 08:46:15;;;;;;;14.98;2.78;;;21.70;97.20;;;;;;5053848;28;20806;-66
2022/08/29 08:48:42;;;;;;;8.55;2.50;;;21.60;97.40;;;;;;5054888;28;20040;-67
2022/08/29 08:51:26;;;;;;;8.00;2.78;;;21.60;97.40;;;;;;5054053;28;20016;-67
2022/08/29 08:53:56;;;;;;;7.35;2.60;;;21.80;97.40;;;;;;5054723;28;20017;-69
2022/08/29 08:56:32;;;;;;;6.53;2.35;;;21.70;97.30;;;;;;5055456;28;20486;-67
2022/08/29 08:59:19;;;;;;;7.70;2.03;;;21.80;97.30;;;;;;5054848;28;20847;-68
2022/08/29 09:02:07;;;;;;;6.60;2.25;;;21.80;97.20;;;;;;5051896;28;20422;-66
2022/08/29 09:04:52;;;;;;;10.93;3.00;;;22.00;96.90;;;;;;5054872;28;20029;-67
2022/08/29 09:07:38;;;;;;;5.72;2.08;;;22.10;97.00;;;;;;5054466;28;20020;-67
2022/08/29 09:10:15;;;;;;;5.35;2.20;;;22.00;96.90;;;;;;5055298;28;20092;-68
2022/08/29 09:13:04;;;;;;;10.02;2.45;;;21.90;96.90;;;;;;5053858;28;20017;-70
2022/08/29 09:15:39;;;;;;;4.47;1.95;;;21.80;97.30;;;;;;5054665;28;20108;-66
2022/08/29 09:18:20;;;;;;;6.00;1.80;;;21.70;97.50;;;;;;5054947;28;20025;-67
2022/08/29 09:20:46;;;;;;;7.28;2.22;;;21.60;97.70;;;;;;5054452;28;20025;-68
2022/08/29 09:23:34;;;;;;;5.60;1.92;;;21.50;97.50;;;;;;5053486;28;20664;-69
2022/08/29 09:26:00;;;;;;;6.55;1.95;;;21.50;97.20;;;;;;5052911;28;20474;-70
2022/08/29 09:28:25;;;;;;;7.18;1.95;;;21.40;97.40;;;;;;5055022;28;20096;-67
2022/08/29 09:31:31;;;;;;;9.45;2.20;;;21.30;97.60;;;;;;5054053;28;20025;-66
2022/08/29 09:33:59;;;;;;;9.13;2.15;;;21.20;97.90;;;;;;5030362;28;20033;-66
2022/08/29 09:36:50;;;;;;;6.38;1.73;;;21.20;98.00;;;;;;5030672;28;20022;-68
2022/08/29 09:39:23;;;;;;;4.80;1.80;;;21.20;97.50;;;;;;5046276;28;20520;-67
2022/08/29 09:42:11;;;;;;;6.05;2.13;;;21.30;97.20;;;;;;5067806;28;20027;-68
2022/08/29 09:44:38;;;;;;;4.20;1.80;;;21.50;97.20;;;;;;5072784;28;20496;-67
2022/08/29 09:47:31;;;;;;;6.90;1.90;;;21.70;96.80;;;;;;5074339;28;20059;-67
2022/08/29 09:50:02;;;;;;;5.65;2.03;;;21.80;96.10;;;;;;5074016;28;20022;-68
2022/08/29 09:52:28;;;;;;;8.93;2.10;;;22.10;95.90;;;;;;5073881;28;20025;-68
2022/08/29 09:54:54;;;;;;;7.10;2.08;;;22.30;95.40;;;;;;5074311;28;20196;-68
2022/08/29 09:57:27;;;;;;;7.32;2.50;;;22.60;95.00;;;;;;5072835;28;20063;-65
2022/08/29 10:00:13;;;;;;;4.03;1.77;;;22.70;95.00;;;;;;5074034;28;20040;-68
2022/08/29 10:02:42;;;;;;;7.78;2.13;;;22.80;94.80;;;;;;5073680;28;20043;-68
2022/08/29 10:05:11;;;;;;;9.60;2.30;;;22.80;94.90;;;;;;5074095;28;20103;-67
2022/08/29 10:07:51;;;;;;;7.18;2.38;;;22.80;94.30;;;;;;5073856;28;20044;-66
2022/08/29 10:10:25;;;;;;;6.95;1.90;;;22.70;93.70;;;;;;5073495;28;20023;-67
2022/08/29 10:13:05;;;;;;;7.38;2.28;;;22.80;93.90;;;;;;5072675;28;20462;-70
2022/08/29 10:15:43;;;;;;;8.70;2.50;;;22.90;94.10;;;;;;5068804;28;20025;-69
2022/08/29 10:18:35;;;;;;;6.53;2.00;;;23.00;93.60;;;;;;5057178;28;20439;-67
2022/08/29 10:21:10;;;;;;;6.28;2.38;;;23.20;93.50;;;;;;5053935;28;20067;-67
2022/08/29 10:24:11;;;;;;;5.50;2.28;;;23.20;93.70;;;;;;5061665;28;20474;-67
2022/08/29 10:26:39;;;;;;;5.32;1.73;;;23.20;93.50;;;;;;5072710;28;20032;-67
2022/08/29 10:29:27;;;;;;;8.48;2.10;;;23.10;93.70;;;;;;5073253;28;20035;-68
2022/08/29 10:31:58;;;;;;;8.23;2.08;;;23.10;93.70;;;;;;5073329;28;20028;-69
2022/08/29 10:34:33;;;;;;;8.07;2.60;;;23.00;93.70;;;;;;5056341;28;20092;-67
2022/08/29 10:37:14;;;;;;;6.75;2.47;;;22.90;93.50;;;;;;5053121;28;20467;-67
2022/08/29 10:39:52;;;;;;;6.30;2.15;;;22.80;93.10;;;;;;5053226;28;20374;-68
2022/08/29 10:42:23;;;;;;;6.43;2.20;;;22.80;93.30;;;;;;5053241;28;20025;-69
2022/08/29 10:45:13;;;;;;;12.55;2.10;;;22.70;93.30;;;;;;5052944;28;20075;-68
2022/08/29 10:48:05;;;;;;;5.28;2.10;;;22.60;93.00;;;;;;5051298;28;20036;-67
2022/08/29 10:50:49;;;;;;;;;;;22.60;93.30;;;;;;5071520;28;20020;-70
2022/08/29 10:53:23;;;;;;;6.93;2.25;;;22.50;93.50;;;;;;5071580;28;19908;-67
2022/08/29 10:55:55;;;;;;;6.90;1.98;;;22.40;93.60;;;;;;5072999;28;20054;-67
2022/08/29 10:58:47;;;;;;;7.95;2.75;;;22.30;93.70;;;;;;5072761;28;20025;-67
2022/08/29 11:01:45;;;;;;;7.70;2.50;;;22.20;93.20;;;;;;5073232;28;20040;-68
2022/08/29 11:04:33;;;;;;;5.90;2.17;;;22.20;93.30;;;;;;5050835;28;20044;-67
2022/08/29 11:07:35;;;;;;;7.78;2.58;;;22.30;93.50;;;;;;5052132;28;20052;-68
2022/08/29 11:10:24;;;;;;;12.13;2.72;;;22.30;93.60;;;;;;5051791;28;20017;-68
2022/08/29 11:13:08;;;;;;;5.57;2.45;;;22.30;93.90;;;;;;5051089;28;20029;-67
2022/08/29 11:16:04;;;;;;;6.53;2.45;;;22.20;94.30;;;;;;5053004;28;20032;-67
2022/08/29 11:18:42;;;;;;;7.57;2.65;;;22.20;94.60;;;;;;5051640;28;20048;-67
2022/08/29 11:21:29;;;;;;;6.13;2.42;;;22.10;94.40;;;;;;5052014;28;20059;-66
2022/08/29 11:23:57;;;;;;;6.38;2.13;;;22.00;94.30;;;;;;5051207;28;20083;-67
2022/08/29 11:26:54;;;;;;;7.18;2.38;;;22.00;94.50;;;;;;5051949;28;20021;-67
2022/08/29 11:29:44;;;;;;;6.03;2.28;;;22.00;95.00;;;;;;5052450;28;20098;-67
2022/08/29 11:32:34;;;;;;;8.57;3.08;;;22.00;95.00;;;;;;5054210;28;20033;-66
2022/08/29 11:35:28;;;;;;;6.80;2.65;;;22.00;95.10;;;;;;5072488;28;20086;-69
2022/08/29 11:38:19;;;;;;;9.80;2.85;;;22.10;95.30;;;;;;5054633;28;20082;-67
2022/08/29 11:40:55;;;;;;;7.88;2.13;;;22.20;95.20;;;;;;5073183;28;20020;-68
2022/08/29 11:43:35;;;;;;;9.57;2.45;;;22.50;95.20;;;;;;5072373;28;20028;-66
2022/08/29 11:46:04;;;;;;;5.20;2.40;;;22.80;94.80;;;;;;5072844;28;20032;-67
2022/08/29 11:48:37;;;;;;;6.22;2.15;;;23.10;94.40;;;;;;5071923;28;20027;-66
2022/08/29 11:51:36;;;;;;;6.72;2.30;;;23.50;94.00;;;;;;5071128;28;20155;-67
2022/08/29 11:54:27;;;;;;;5.20;1.83;;;23.90;93.70;;;;;;5072220;28;20052;-68
2022/08/29 11:56:59;;;;;;;7.35;2.05;;;24.30;92.90;;;;;;5066429;28;20505;-67
2022/08/29 11:59:49;;;;;;;6.95;2.08;;;24.80;92.30;;;;;;5075529;28;20474;-70
2022/08/29 12:02:28;;;;;;;9.18;2.08;;;25.20;91.90;;;;;;5075938;28;20031;-67
2022/08/29 12:05:28;;;;;;;5.53;1.90;;;25.70;91.40;;;;;;5076280;28;20442;-67
2022/08/29 12:08:00;;;;;;;7.80;2.30;;;26.00;91.10;;;;;;5055667;28;20098;-67
2022/08/29 12:10:32;;;;;;;7.63;2.10;;;26.10;90.80;;;;;;5056620;28;20128;-70
2022/08/29 12:13:03;;;;;;;7.18;2.33;;;26.20;90.70;;;;;;5055623;28;20031;-67
2022/08/29 12:15:29;;;;;;;6.57;1.70;;;26.20;90.60;;;;;;5055830;28;20113;-69
2022/08/29 12:17:59;;;;;;;7.25;2.28;;;26.20;90.40;;;;;;5055350;28;20056;-68
2022/08/29 12:20:34;;;;;;;5.47;2.40;;;26.20;90.30;;;;;;5055496;28;20039;-67
2022/08/29 12:23:03;;;;;;;10.55;2.47;;;26.10;90.10;;;;;;5055523;28;20032;-66
2022/08/29 12:25:53;;;;;;;5.72;2.17;;;26.00;90.10;;;;;;5055883;28;20028;-67
2022/08/29 12:28:25;;;;;;;7.03;2.10;;;25.70;90.40;;;;;;5054589;28;20454;-68
2022/08/29 12:30:57;;;;;;;8.35;2.80;;;25.50;90.50;;;;;;5055880;28;20013;-67
2022/08/29 12:34:00;;;;;;;7.57;1.98;;;25.20;90.90;;;;;;5055783;28;20021;-68
2022/08/29 12:36:46;;;;;;;8.23;2.25;;;25.10;90.90;;;;;;5054778;28;20048;-68
2022/08/29 12:39:26;;;;;;;6.75;2.58;;;25.00;91.00;;;;;;5056164;28;20031;-68
2022/08/29 12:42:10;;;;;;;14.02;2.75;;;25.00;91.00;;;;;;5055172;28;20025;-67
2022/08/29 12:44:40;;;;;;;7.93;2.20;;;25.10;90.90;;;;;;5055809;28;20079;-65
2022/08/29 12:47:37;;;;;;;5.60;1.83;;;25.30;90.70;;;;;;5054362;28;20031;-68
2022/08/29 12:50:19;;;;;;;5.93;2.47;;;25.40;90.30;;;;;;5054402;28;20519;-67
2022/08/29 12:53:02;;;;;;;7.15;2.13;;;25.50;90.30;;;;;;5055277;28;20025;-69
2022/08/29 12:55:42;;;;;;;6.88;2.80;;;25.60;90.00;;;;;;5055494;28;20099;-69
2022/08/29 12:58:10;;;;;;;5.88;2.10;;;25.80;90.40;;;;;;5054204;28;20029;-66
2022/08/29 13:00:36;;;;;;;5.55;2.08;;;26.50;89.30;;;;;;5053831;28;20084;-66
2022/08/29 13:03:16;;;;;;;4.35;2.08;;;27.30;86.90;;;;;;5054900;28;20075;-69
2022/08/29 13:05:43;;;;;;;7.65;2.42;;;27.70;85.50;;;;;;5054039;28;20108;-67
2022/08/29 13:08:32;;;;;;;7.05;2.20;;;27.90;84.30;;;;;;5055071;28;20455;-71